createdAt,value
2024-05-09T00:00:42.021Z,9.7967
2024-05-09T00:01:41.882Z,9.7144
2024-05-09T00:02:43.998Z,9.7005
2024-05-09T00:03:46.206Z,9.7025
2024-05-09T00:04:48.360Z,9.7131
2024-05-09T00:05:50.550Z,9.6834
2024-05-09T00:06:52.655Z,9.6502
2024-05-09T00:07:54.757Z,9.6481
2024-05-09T00:08:56.847Z,9.6903
2024-05-09T00:09:58.931Z,9.6759
2024-05-09T00:11:01.073Z,9.6752
2024-05-09T00:12:03.221Z,9.6646
2024-05-09T00:13:05.547Z,9.6341
2024-05-09T00:14:07.695Z,9.7169
2024-05-09T00:15:09.782Z,9.6956
2024-05-09T00:16:11.869Z,9.6757
2024-05-09T00:17:14.055Z,9.6647
2024-05-09T00:18:16.398Z,9.6496
2024-05-09T00:19:18.698Z,9.6132
2024-05-09T00:20:28.052Z,9.6379
2024-05-09T00:21:21.391Z,9.6378
2024-05-09T00:22:23.447Z,9.6301
2024-05-09T00:23:25.608Z,9.6319
2024-05-09T00:24:27.718Z,9.6590
2024-05-09T00:25:29.789Z,9.6529
2024-05-09T00:26:32.014Z,9.6457
2024-05-09T00:27:34.072Z,9.6275
2024-05-09T00:28:36.199Z,9.6033
2024-05-09T00:29:38.291Z,9.6208
2024-05-09T00:30:40.335Z,9.6264
2024-05-09T00:31:42.481Z,9.5739
2024-05-09T00:32:44.682Z,9.5879
2024-05-09T00:33:46.904Z,9.5747
2024-05-09T00:34:49.057Z,9.6109
2024-05-09T00:35:51.096Z,9.5995
2024-05-09T00:36:53.182Z,9.5857
2024-05-09T00:37:55.352Z,9.6058
2024-05-09T00:38:57.402Z,9.6096
2024-05-09T00:39:59.461Z,9.5738
2024-05-09T00:41:01.560Z,9.5415
2024-05-09T00:42:03.629Z,9.5276
2024-05-09T00:43:05.724Z,9.5256
2024-05-09T00:44:07.842Z,9.5256
2024-05-09T00:45:09.884Z,9.5485
2024-05-09T00:46:11.971Z,9.5333
2024-05-09T00:47:14.145Z,9.5385
2024-05-09T00:48:18.863Z,9.5418
2024-05-09T00:49:18.114Z,9.5938
2024-05-09T00:50:29.389Z,9.6076
2024-05-09T00:51:20.974Z,9.5812
2024-05-09T00:52:23.065Z,9.6511
2024-05-09T00:53:25.185Z,9.6193
2024-05-09T00:54:27.197Z,9.6516
2024-05-09T00:55:29.291Z,9.6876
2024-05-09T00:56:31.530Z,9.6411
2024-05-09T00:57:33.616Z,9.6764
2024-05-09T00:58:35.696Z,9.6645
2024-05-09T00:59:37.811Z,9.7114
2024-05-09T01:00:41.256Z,9.6857
2024-05-09T01:01:41.527Z,9.7094
2024-05-09T01:02:43.737Z,9.6897
2024-05-09T01:03:48.717Z,9.7220
2024-05-09T01:04:47.576Z,9.7499
2024-05-09T01:05:49.858Z,9.7496
2024-05-09T01:06:51.961Z,9.7503
2024-05-09T01:07:54.150Z,9.7724
2024-05-09T01:08:56.206Z,9.7313
2024-05-09T01:09:58.289Z,9.7786
2024-05-09T01:11:00.472Z,9.7679
2024-05-09T01:12:02.705Z,9.8045
2024-05-09T01:13:04.906Z,9.7775
2024-05-09T01:14:07.142Z,9.7849
2024-05-09T01:15:09.223Z,9.7929
2024-05-09T01:16:11.291Z,9.7652
2024-05-09T01:17:13.459Z,9.8268
2024-05-09T01:18:15.885Z,9.7754
2024-05-09T01:19:18.149Z,9.7981
2024-05-09T01:20:27.826Z,9.8347
2024-05-09T01:21:20.922Z,9.7762
2024-05-09T01:22:23.029Z,9.8944
2024-05-09T01:23:25.235Z,9.8746
2024-05-09T01:24:27.265Z,9.8272
2024-05-09T01:25:29.340Z,9.8165
2024-05-09T01:26:31.494Z,9.8429
2024-05-09T01:27:33.544Z,9.8161
2024-05-09T01:28:35.678Z,9.8368
2024-05-09T01:29:37.834Z,9.8012
2024-05-09T01:30:39.915Z,9.7805
2024-05-09T01:31:42.030Z,9.7896
2024-05-09T01:32:44.164Z,9.7985
2024-05-09T01:33:46.693Z,9.7688
2024-05-09T01:34:46.506Z,9.8392
2024-05-09T01:35:48.581Z,9.8476
2024-05-09T01:36:50.698Z,9.8351
2024-05-09T01:37:52.774Z,9.7896
2024-05-09T01:38:54.868Z,9.7927
2024-05-09T01:39:56.962Z,9.8059
2024-05-09T01:40:59.067Z,9.8246
2024-05-09T01:42:01.107Z,9.8264
2024-05-09T01:43:03.216Z,9.8003
2024-05-09T01:44:05.312Z,9.8395
2024-05-09T01:45:07.371Z,9.8649
2024-05-09T01:46:09.444Z,9.8489
2024-05-09T01:47:11.735Z,9.8100
2024-05-09T01:48:11.891Z,9.8536
2024-05-09T01:49:14.365Z,9.8332
2024-05-09T01:51:15.853Z,9.8499
2024-05-09T01:52:17.909Z,9.8489
2024-05-09T01:53:20.103Z,9.8928
2024-05-09T01:54:22.162Z,9.8897
2024-05-09T01:55:24.357Z,9.9261
2024-05-09T01:56:26.446Z,9.9595
2024-05-09T01:57:28.635Z,9.8538
2024-05-09T01:58:30.731Z,9.8528
2024-05-09T01:59:32.897Z,9.8597
2024-05-09T02:00:40.022Z,9.9102
2024-05-09T02:01:55.592Z,9.8881
2024-05-09T02:02:36.224Z,9.8831
2024-05-09T02:03:38.531Z,9.9123
2024-05-09T02:04:40.791Z,9.9262
2024-05-09T02:05:42.978Z,9.9573
2024-05-09T02:06:42.916Z,9.9758
2024-05-09T02:07:46.415Z,9.9822
2024-05-09T02:08:49.613Z,9.9720
2024-05-09T02:09:53.058Z,9.9797
2024-05-09T02:10:56.366Z,9.9405
2024-05-09T02:11:59.715Z,9.9626
2024-05-09T02:13:02.950Z,9.9345
2024-05-09T02:14:06.311Z,9.9681
2024-05-09T02:15:09.508Z,9.9442
2024-05-09T02:16:12.728Z,9.9790
2024-05-09T02:17:16.128Z,9.9482
2024-05-09T02:18:17.029Z,10.0102
2024-05-09T02:19:16.899Z,9.9852
2024-05-09T02:20:30.048Z,9.9839
2024-05-09T02:21:22.265Z,9.9605
2024-05-09T02:22:25.465Z,10.0077
2024-05-09T02:23:28.688Z,9.9696
2024-05-09T02:24:31.924Z,9.9950
2024-05-09T02:25:35.128Z,10.0094
2024-05-09T02:26:38.368Z,9.9690
2024-05-09T02:27:41.606Z,10.0031
2024-05-09T02:28:44.827Z,9.9939
2024-05-09T02:29:48.080Z,10.0559
2024-05-09T02:30:51.272Z,10.0301
2024-05-09T02:31:54.574Z,10.0061
2024-05-09T02:32:57.884Z,10.0310
2024-05-09T02:34:01.499Z,9.9488
2024-05-09T02:35:01.572Z,10.0122
2024-05-09T02:36:04.946Z,10.0846
2024-05-09T02:37:08.177Z,10.0683
2024-05-09T02:38:11.491Z,10.1193
2024-05-09T02:39:11.436Z,10.0358
2024-05-09T02:40:18.119Z,10.0282
2024-05-09T02:41:16.794Z,9.9996
2024-05-09T02:42:18.115Z,9.9656
2024-05-09T02:43:21.279Z,9.9962
2024-05-09T02:44:24.591Z,9.9548
2024-05-09T02:45:27.833Z,9.9736
2024-05-09T02:46:27.905Z,9.9697
2024-05-09T02:47:31.183Z,9.9806
2024-05-09T02:48:34.561Z,9.9910
2024-05-09T02:49:37.818Z,10.0095
2024-05-09T02:50:41.297Z,9.9718
2024-05-09T02:51:41.176Z,9.9921
2024-05-09T02:52:44.381Z,9.9674
2024-05-09T02:53:47.646Z,9.9477
2024-05-09T02:54:50.943Z,9.9192
2024-05-09T02:55:54.158Z,9.9115
2024-05-09T02:56:57.342Z,9.9129
2024-05-09T02:58:00.587Z,9.9480
2024-05-09T02:59:03.875Z,9.8736
2024-05-09T03:00:12.101Z,9.9579
2024-05-09T03:01:09.175Z,9.8661
2024-05-09T03:02:12.498Z,9.9481
2024-05-09T03:03:16.080Z,9.9379
2024-05-09T03:04:16.151Z,9.9404
2024-05-09T03:05:19.541Z,9.9135
2024-05-09T03:06:22.725Z,9.8653
2024-05-09T03:07:26.220Z,9.8193
2024-05-09T03:08:26.164Z,9.8275
2024-05-09T03:09:29.337Z,9.8546
2024-05-09T03:10:35.852Z,9.9342
2024-05-09T03:11:34.815Z,9.9257
2024-05-09T03:12:37.859Z,9.9010
2024-05-09T03:13:35.152Z,9.8521
2024-05-09T03:14:38.352Z,9.8874
2024-05-09T03:15:41.618Z,9.8526
2024-05-09T03:16:44.823Z,9.8426
2024-05-09T03:17:48.162Z,9.8434
2024-05-09T03:18:48.041Z,9.8644
2024-05-09T03:19:51.300Z,9.8242
2024-05-09T03:20:54.590Z,9.8628
2024-05-09T03:21:57.825Z,9.8714
2024-05-09T03:23:01.053Z,9.8015
2024-05-09T03:24:04.299Z,9.8391
2024-05-09T03:25:05.563Z,9.9057
2024-05-09T03:26:08.856Z,9.8429
2024-05-09T03:27:12.020Z,9.9082
2024-05-09T03:28:15.312Z,9.8207
2024-05-09T03:29:15.344Z,9.8811
2024-05-09T03:30:29.552Z,9.8000
2024-05-09T03:31:20.731Z,9.8474
2024-05-09T03:32:24.121Z,9.7951
2024-05-09T03:33:27.518Z,9.7649
2024-05-09T03:34:30.948Z,9.7633
2024-05-09T03:35:34.207Z,9.7861
2024-05-09T03:36:37.394Z,9.8054
2024-05-09T03:37:40.599Z,9.7673
2024-05-09T03:38:43.876Z,9.7766
2024-05-09T03:39:47.046Z,9.8420
2024-05-09T03:40:50.890Z,9.7726
2024-05-09T03:41:51.020Z,9.7265
2024-05-09T03:42:54.230Z,9.7527
2024-05-09T03:43:58.354Z,9.7474
2024-05-09T03:44:58.052Z,9.7474
2024-05-09T03:46:01.284Z,9.7892
2024-05-09T03:47:04.537Z,9.7962
2024-05-09T03:48:08.096Z,9.7859
2024-05-09T03:49:08.088Z,9.8099
2024-05-09T03:50:18.316Z,9.8195
2024-05-09T03:51:13.549Z,9.7938
2024-05-09T03:52:16.790Z,9.7809
2024-05-09T03:53:20.144Z,9.8131
2024-05-09T03:54:23.317Z,9.8397
2024-05-09T03:55:26.544Z,9.8155
2024-05-09T03:56:29.776Z,9.8058
2024-05-09T03:57:32.996Z,9.8300
2024-05-09T03:58:36.231Z,9.7951
2024-05-09T03:59:39.588Z,9.8411
2024-05-09T04:00:42.845Z,9.8094
2024-05-09T04:01:46.196Z,9.7554
2024-05-09T04:02:49.513Z,9.7834
2024-05-09T04:03:52.845Z,9.8100
2024-05-09T04:04:56.116Z,9.7633
2024-05-09T04:05:59.375Z,9.8131
2024-05-09T04:07:02.563Z,9.8101
2024-05-09T04:08:05.799Z,9.8251
2024-05-09T04:09:05.850Z,9.8394
2024-05-09T04:10:13.885Z,9.8310
2024-05-09T04:11:11.232Z,9.9160
2024-05-09T04:12:14.635Z,9.8772
2024-05-09T04:13:17.843Z,9.8855
2024-05-09T04:14:21.118Z,9.9276
2024-05-09T04:15:24.355Z,9.9598
2024-05-09T04:16:24.416Z,9.9524
2024-05-09T04:17:27.740Z,9.9480
2024-05-09T04:18:31.091Z,9.9861
2024-05-09T04:19:34.535Z,10.0132
2024-05-09T04:20:40.364Z,10.0006
2024-05-09T04:21:40.951Z,10.0438
2024-05-09T04:22:44.267Z,9.9849
2024-05-09T04:23:47.547Z,10.0015
2024-05-09T04:24:50.786Z,9.9567
2024-05-09T04:25:54.839Z,10.0131
2024-05-09T04:26:54.558Z,9.9862
2024-05-09T04:27:57.830Z,9.9388
2024-05-09T04:29:01.086Z,9.9453
2024-05-09T04:30:06.098Z,10.0162
2024-05-09T04:31:07.459Z,9.9615
2024-05-09T04:32:10.817Z,9.9146
2024-05-09T04:33:14.943Z,9.9401
2024-05-09T04:34:15.216Z,9.9401
2024-05-09T04:35:18.501Z,9.9236
2024-05-09T04:36:21.711Z,9.9539
2024-05-09T04:37:24.976Z,9.8895
2024-05-09T04:38:28.221Z,9.9683
2024-05-09T04:39:31.438Z,9.9757
2024-05-09T04:40:36.698Z,10.0249
2024-05-09T04:41:37.281Z,10.0259
2024-05-09T04:42:40.485Z,9.9613
2024-05-09T04:43:43.712Z,10.0595
2024-05-09T04:44:46.953Z,10.0101
2024-05-09T04:45:50.180Z,10.0141
2024-05-09T04:46:53.512Z,10.0594
2024-05-09T04:47:56.966Z,10.0499
2024-05-09T04:48:56.915Z,10.1036
2024-05-09T04:50:00.203Z,10.0993
2024-05-09T04:51:03.709Z,10.0380
2024-05-09T04:52:03.498Z,10.0675
2024-05-09T04:53:07.613Z,10.0012
2024-05-09T04:54:10.738Z,10.0901
2024-05-09T04:55:09.178Z,10.0321
2024-05-09T04:56:12.495Z,10.0269
2024-05-09T04:57:15.708Z,9.9822
2024-05-09T04:58:18.906Z,10.0297
2024-05-09T04:59:22.296Z,10.0496
2024-05-09T05:00:32.044Z,10.0677
2024-05-09T05:01:27.677Z,10.1703
2024-05-09T05:02:30.951Z,10.0605
2024-05-09T05:03:34.292Z,10.0441
2024-05-09T05:04:37.635Z,10.0659
2024-05-09T05:05:41.361Z,10.0889
2024-05-09T05:06:41.326Z,10.0963
2024-05-09T05:07:44.592Z,10.1273
2024-05-09T05:08:47.823Z,10.0791
2024-05-09T05:09:51.039Z,10.0696
2024-05-09T05:10:54.437Z,10.0000
2024-05-09T05:11:57.831Z,10.1015
2024-05-09T05:13:01.083Z,10.0327
2024-05-09T05:14:04.394Z,10.1458
2024-05-09T05:15:07.580Z,10.1426
2024-05-09T05:16:10.802Z,10.0993
2024-05-09T05:17:14.091Z,10.1825
2024-05-09T05:18:17.463Z,10.2228
2024-05-09T05:19:17.839Z,10.1979
2024-05-09T05:20:27.038Z,10.2299
2024-05-09T05:21:19.861Z,10.1221
2024-05-09T05:22:23.094Z,10.1555
2024-05-09T05:23:26.409Z,10.2807
2024-05-09T05:24:29.642Z,10.2432
2024-05-09T05:25:32.865Z,10.3084
2024-05-09T05:26:36.167Z,10.2764
2024-05-09T05:27:39.417Z,10.3785
2024-05-09T05:28:42.652Z,10.4685
2024-05-09T05:29:45.915Z,10.4041
2024-05-09T05:30:49.126Z,10.4210
2024-05-09T05:31:52.443Z,10.4522
2024-05-09T05:32:55.889Z,10.2601
2024-05-09T05:33:55.923Z,10.2598
2024-05-09T05:34:59.213Z,10.2331
2024-05-09T05:36:02.450Z,10.3104
2024-05-09T05:37:05.648Z,10.4382
2024-05-09T05:38:09.004Z,10.3313
2024-05-09T05:39:09.161Z,10.2449
2024-05-09T05:40:20.629Z,10.4160
2024-05-09T05:41:14.608Z,10.3326
2024-05-09T05:42:17.850Z,10.2863
2024-05-09T05:43:21.067Z,10.1372
2024-05-09T05:44:24.364Z,10.2467
2024-05-09T05:45:27.609Z,10.2484
2024-05-09T05:46:30.841Z,10.1981
2024-05-09T05:47:34.323Z,10.3556
2024-05-09T05:48:34.331Z,10.3732
2024-05-09T05:49:34.290Z,10.3832
2024-05-09T05:50:38.591Z,10.3805
2024-05-09T05:51:38.616Z,10.3327
2024-05-09T05:52:41.841Z,10.2503
2024-05-09T05:53:45.137Z,10.3027
2024-05-09T05:54:48.348Z,10.4264
2024-05-09T05:55:51.628Z,10.3454
2024-05-09T05:56:54.895Z,10.3259
2024-05-09T05:57:58.129Z,10.2702
2024-05-09T05:59:01.425Z,10.2415
2024-05-09T06:00:09.233Z,10.2142
2024-05-09T06:01:06.814Z,10.3336
2024-05-09T06:02:10.236Z,10.2866
2024-05-09T06:03:14.290Z,10.4397
2024-05-09T06:04:14.322Z,10.3457
2024-05-09T06:05:17.605Z,10.4314
2024-05-09T06:06:21.024Z,10.3233
2024-05-09T06:07:24.198Z,10.2854
2024-05-09T06:08:30.256Z,10.3992
2024-05-09T06:09:30.374Z,10.4673
2024-05-09T06:10:38.742Z,10.5991
2024-05-09T06:11:35.803Z,10.5417
2024-05-09T06:12:39.124Z,10.4983
2024-05-09T06:13:42.338Z,10.6065
2024-05-09T06:14:45.573Z,10.6005
2024-05-09T06:15:48.976Z,10.5317
2024-05-09T06:16:54.057Z,10.5255
2024-05-09T06:17:54.595Z,10.4938
2024-05-09T06:18:54.602Z,10.5725
2024-05-09T06:19:54.884Z,10.7373
2024-05-09T06:20:55.091Z,10.7015
2024-05-09T06:21:58.308Z,10.7096
2024-05-09T06:23:01.671Z,10.8711
2024-05-09T06:24:06.778Z,10.8582
2024-05-09T06:25:06.536Z,10.7667
2024-05-09T06:26:09.845Z,10.8373
2024-05-09T06:27:13.038Z,10.8943
2024-05-09T06:28:16.363Z,10.9323
2024-05-09T06:29:19.601Z,10.9329
2024-05-09T06:30:30.115Z,11.0874
2024-05-09T06:31:25.005Z,11.0834
2024-05-09T06:32:28.348Z,11.0695
2024-05-09T06:33:31.764Z,11.0910
2024-05-09T06:34:35.082Z,11.3073
2024-05-09T06:35:38.521Z,11.1432
2024-05-09T06:36:38.331Z,11.3287
2024-05-09T06:37:41.615Z,11.5484
2024-05-09T06:38:44.931Z,11.7506
2024-05-09T06:39:48.145Z,11.4591
2024-05-09T06:40:51.427Z,11.4119
2024-05-09T06:41:51.388Z,11.4310
2024-05-09T06:42:54.621Z,11.3517
2024-05-09T06:43:57.962Z,11.1629
2024-05-09T06:45:01.152Z,11.4092
2024-05-09T06:46:04.376Z,11.6657
2024-05-09T06:47:07.785Z,11.5576
2024-05-09T06:48:11.267Z,11.4699
2024-05-09T06:49:11.412Z,11.7310
2024-05-09T06:50:20.153Z,11.8455
2024-05-09T06:51:13.742Z,11.7667
2024-05-09T06:52:16.962Z,11.8247
2024-05-09T06:53:20.380Z,12.3179
2024-05-09T06:54:23.711Z,11.7157
2024-05-09T06:55:26.939Z,11.5608
2024-05-09T06:56:30.358Z,11.5519
2024-05-09T06:57:33.561Z,11.8612
2024-05-09T06:58:36.908Z,11.9424
2024-05-09T06:59:40.268Z,11.8058
2024-05-09T07:00:43.633Z,11.8755
2024-05-09T07:01:46.920Z,12.1516
2024-05-09T07:02:50.349Z,11.9221
2024-05-09T07:03:53.663Z,11.6642
2024-05-09T07:04:57.018Z,11.7209
2024-05-09T07:05:56.938Z,11.9297
2024-05-09T07:07:00.212Z,11.7116
2024-05-09T07:08:03.526Z,11.7145
2024-05-09T07:09:06.768Z,11.8575
2024-05-09T07:10:14.990Z,11.7461
2024-05-09T07:11:12.229Z,11.6597
2024-05-09T07:12:15.539Z,11.6915
2024-05-09T07:13:18.890Z,11.8418
2024-05-09T07:14:22.194Z,11.7580
2024-05-09T07:15:25.395Z,11.6632
2024-05-09T07:16:28.622Z,11.7104
2024-05-09T07:17:32.088Z,11.6178
2024-05-09T07:18:35.508Z,11.6549
2024-05-09T07:19:35.515Z,11.6824
2024-05-09T07:20:38.807Z,11.5895
2024-05-09T07:21:42.059Z,11.6522
2024-05-09T07:22:45.410Z,11.6265
2024-05-09T07:23:48.723Z,11.4254
2024-05-09T07:24:52.031Z,11.4153
2024-05-09T07:25:55.321Z,11.5984
2024-05-09T07:26:58.540Z,11.6316
2024-05-09T07:28:01.899Z,11.8279
2024-05-09T07:29:05.161Z,11.7150
2024-05-09T07:30:09.424Z,11.9658
2024-05-09T07:31:11.277Z,11.7648
2024-05-09T07:32:14.730Z,11.5939
2024-05-09T07:33:14.757Z,11.6868
2024-05-09T07:34:14.830Z,11.8703
2024-05-09T07:35:14.664Z,11.9727
2024-05-09T07:36:17.851Z,11.8734
2024-05-09T07:37:21.075Z,11.9299
2024-05-09T07:38:24.490Z,12.0646
2024-05-09T07:39:27.731Z,12.0694
2024-05-09T07:40:35.966Z,11.8752
2024-05-09T07:41:33.385Z,11.8515
2024-05-09T07:42:36.569Z,11.8506
2024-05-09T07:43:39.804Z,11.7540
2024-05-09T07:44:43.165Z,11.7218
2024-05-09T07:47:48.609Z,11.9750
2024-05-09T07:49:13.573Z,11.7485
2024-05-09T07:52:45.973Z,11.8431
2024-05-09T07:53:22.088Z,11.9776
2024-05-09T07:53:36.082Z,11.9292
2024-05-09T07:54:04.412Z,11.7727
2024-05-09T07:55:04.708Z,12.0015
2024-05-09T07:56:09.359Z,12.0703
2024-05-09T07:57:09.798Z,12.1818
2024-05-09T07:58:13.151Z,11.8191
2024-05-09T07:59:16.433Z,11.9844
2024-05-09T08:00:23.734Z,12.2266
2024-05-09T08:01:22.062Z,12.3745
2024-05-09T08:02:22.256Z,12.6782
2024-05-09T08:03:22.368Z,12.5497
2024-05-09T08:04:26.778Z,12.2879
2024-05-09T08:05:26.753Z,12.1342
2024-05-09T08:06:30.087Z,12.1824
2024-05-09T08:07:33.426Z,12.2729
2024-05-09T08:08:36.621Z,12.2570
2024-05-09T08:09:39.976Z,12.4244
2024-05-09T08:10:43.502Z,12.4598
2024-05-09T08:11:43.386Z,12.3505
2024-05-09T08:12:46.592Z,12.4460
2024-05-09T08:13:49.857Z,12.2602
2024-05-09T08:14:53.270Z,12.3860
2024-05-09T08:15:56.579Z,12.4661
2024-05-09T08:16:59.810Z,12.3599
2024-05-09T08:18:03.237Z,12.5813
2024-05-09T08:19:06.682Z,12.6925
2024-05-09T08:20:11.355Z,12.2542
2024-05-09T08:21:13.120Z,12.3126
2024-05-09T08:22:12.891Z,12.4322
2024-05-09T08:23:16.095Z,12.3438
2024-05-09T08:24:19.333Z,12.7292
2024-05-09T08:25:22.618Z,12.6779
2024-05-09T08:26:25.836Z,12.5499
2024-05-09T08:27:29.136Z,12.4799
2024-05-09T08:28:32.394Z,12.4009
2024-05-09T08:29:35.604Z,12.3235
2024-05-09T08:30:38.951Z,12.3096
2024-05-09T08:31:42.276Z,12.2435
2024-05-09T08:32:45.736Z,12.1685
2024-05-09T08:33:49.092Z,12.4616
2024-05-09T08:34:52.536Z,12.3567
2024-05-09T08:35:55.806Z,12.3090
2024-05-09T08:37:03.913Z,12.2943
2024-05-09T08:38:01.342Z,12.2452
2024-05-09T08:39:04.643Z,12.0765
2024-05-09T08:40:11.133Z,12.3646
2024-05-09T08:41:10.156Z,12.6118
2024-05-09T08:42:13.396Z,12.3922
2024-05-09T08:43:16.831Z,12.5054
2024-05-09T08:44:16.612Z,12.8060
2024-05-09T08:45:16.738Z,12.8429
2024-05-09T08:46:20.129Z,12.6410
2024-05-09T08:47:20.007Z,12.7466
2024-05-09T08:48:23.510Z,12.8907
2024-05-09T08:49:23.651Z,12.8481
2024-05-09T08:50:35.457Z,12.9040
2024-05-09T08:51:29.178Z,13.1519
2024-05-09T08:52:32.434Z,12.7512
2024-05-09T08:53:35.646Z,12.9668
2024-05-09T08:54:38.909Z,12.7168
2024-05-09T08:55:43.769Z,12.7199
2024-05-09T08:56:44.043Z,12.8916
2024-05-09T08:57:47.364Z,13.3185
2024-05-09T08:58:50.542Z,13.1670
2024-05-09T08:59:53.766Z,12.9654
2024-05-09T09:00:57.123Z,13.0165
2024-05-09T09:02:00.489Z,13.0424
2024-05-09T09:03:03.819Z,13.0040
2024-05-09T09:04:07.338Z,12.8347
2024-05-09T09:05:07.241Z,12.7174
2024-05-09T09:06:10.486Z,12.9693
2024-05-09T09:07:13.847Z,12.9224
2024-05-09T09:08:17.080Z,12.8723
2024-05-09T09:09:20.368Z,12.8442
2024-05-09T09:10:29.804Z,12.7057
2024-05-09T09:11:25.723Z,12.5191
2024-05-09T09:12:28.978Z,12.7157
2024-05-09T09:13:32.217Z,12.6441
2024-05-09T09:14:35.528Z,12.6045
2024-05-09T09:15:38.740Z,12.8347
2024-05-09T09:16:41.936Z,12.8323
2024-05-09T09:17:45.198Z,12.7335
2024-05-09T09:18:48.524Z,12.7769
2024-05-09T09:19:48.469Z,13.0715
2024-05-09T09:20:51.762Z,13.2744
2024-05-09T09:21:55.018Z,12.9878
2024-05-09T09:22:58.252Z,12.6617
2024-05-09T09:24:01.612Z,12.7475
2024-05-09T09:25:04.993Z,13.0000
2024-05-09T09:26:08.303Z,12.8497
2024-05-09T09:27:11.546Z,12.7637
2024-05-09T09:28:14.956Z,13.2127
2024-05-09T09:29:18.185Z,13.0384
2024-05-09T09:30:34.005Z,13.1178
2024-05-09T09:31:23.598Z,13.3467
2024-05-09T09:32:23.598Z,13.0773
2024-05-09T09:33:40.946Z,13.0947
2024-05-09T09:34:43.301Z,13.4119
2024-05-09T09:35:45.431Z,13.9740
2024-05-09T09:36:45.584Z,14.0233
2024-05-09T09:37:47.764Z,13.5715
2024-05-09T09:38:49.835Z,13.5540
2024-05-09T09:39:51.985Z,14.1220
2024-05-09T09:40:54.204Z,13.5964
2024-05-09T09:41:56.308Z,13.7462
2024-05-09T09:42:58.506Z,13.4395
2024-05-09T09:44:00.620Z,13.4790
2024-05-09T09:45:05.460Z,13.3720
2024-05-09T09:46:03.149Z,13.4533
2024-05-09T09:47:05.290Z,13.6574
2024-05-09T09:48:07.522Z,13.3122
2024-05-09T09:49:09.645Z,13.1452
2024-05-09T09:50:14.634Z,13.5400
2024-05-09T09:51:12.368Z,13.8188
2024-05-09T09:52:14.659Z,14.1752
2024-05-09T09:53:16.809Z,13.9418
2024-05-09T09:54:18.921Z,13.9608
2024-05-09T09:55:21.096Z,13.7191
2024-05-09T09:56:23.226Z,13.9804
2024-05-09T09:57:25.349Z,14.1130
2024-05-09T09:58:27.699Z,14.1830
2024-05-09T09:59:29.784Z,13.9971
2024-05-09T10:00:33.528Z,13.9473
2024-05-09T10:01:33.797Z,14.2642
2024-05-09T10:02:35.940Z,14.4720
2024-05-09T10:03:38.341Z,14.1956
2024-05-09T10:04:38.289Z,14.1577
2024-05-09T10:05:42.097Z,14.0441
2024-05-09T10:06:41.361Z,14.1597
2024-05-09T10:07:43.472Z,14.0523
2024-05-09T10:08:45.609Z,14.5478
2024-05-09T10:09:47.768Z,14.7259
2024-05-09T10:10:50.242Z,14.6780
2024-05-09T10:11:52.360Z,14.6343
2024-05-09T10:12:51.833Z,14.7151
2024-05-09T10:13:54.034Z,14.6232
2024-05-09T10:14:56.158Z,14.4521
2024-05-09T10:15:58.415Z,14.4789
2024-05-09T10:17:00.659Z,14.7388
2024-05-09T10:18:03.095Z,14.1751
2024-05-09T10:19:05.363Z,14.1098
2024-05-09T10:20:14.657Z,14.0238
2024-05-09T10:21:08.078Z,14.4943
2024-05-09T10:22:10.344Z,14.6133
2024-05-09T10:23:12.621Z,14.5095
2024-05-09T10:24:14.702Z,14.6734
2024-05-09T10:25:16.874Z,15.0413
2024-05-09T10:26:19.112Z,14.9285
2024-05-09T10:27:21.311Z,14.5946
2024-05-09T10:28:23.546Z,14.9084
2024-05-09T10:29:25.718Z,15.2031
2024-05-09T10:30:34.082Z,15.3852
2024-05-09T10:31:28.561Z,15.6077
2024-05-09T10:32:30.745Z,15.2967
2024-05-09T10:33:33.103Z,14.8038
2024-05-09T10:34:35.414Z,15.6650
2024-05-09T10:35:37.570Z,16.1686
2024-05-09T10:36:39.873Z,15.4753
2024-05-09T10:37:42.025Z,15.8431
2024-05-09T10:38:44.138Z,15.8623
2024-05-09T10:39:46.341Z,15.5133
2024-05-09T10:40:48.447Z,14.8751
2024-05-09T10:41:50.731Z,14.6219
2024-05-09T10:42:52.900Z,14.7845
2024-05-09T10:43:55.024Z,14.6808
2024-05-09T10:44:57.120Z,14.6766
2024-05-09T10:45:59.265Z,14.3952
2024-05-09T10:47:01.401Z,14.1641
2024-05-09T10:48:03.601Z,14.4628
2024-05-09T10:49:07.875Z,14.5983
2024-05-09T10:50:15.737Z,14.6599
2024-05-09T10:51:08.249Z,14.3744
2024-05-09T10:52:10.473Z,14.5395
2024-05-09T10:53:12.582Z,14.6431
2024-05-09T10:54:14.692Z,14.7788
2024-05-09T10:55:17.079Z,14.5672
2024-05-09T10:56:19.183Z,15.0552
2024-05-09T10:57:21.343Z,14.6839
2024-05-09T10:58:23.581Z,14.7719
2024-05-09T10:59:25.689Z,15.1554
2024-05-09T11:00:33.595Z,15.0014
2024-05-09T11:01:28.758Z,14.4631
2024-05-09T11:02:31.122Z,14.6433
2024-05-09T11:03:31.117Z,14.9827
2024-05-09T11:04:33.337Z,15.5293
2024-05-09T11:05:35.528Z,15.2052
2024-05-09T11:06:37.690Z,15.2434
2024-05-09T11:07:40.025Z,15.2859
2024-05-09T11:08:42.216Z,14.7969
2024-05-09T11:09:44.451Z,14.8622
2024-05-09T11:10:46.702Z,15.1621
2024-05-09T11:11:48.879Z,15.5266
2024-05-09T11:12:51.180Z,16.4560
2024-05-09T11:13:53.263Z,16.4058
2024-05-09T11:14:55.492Z,15.2193
2024-05-09T11:15:57.603Z,15.3632
2024-05-09T11:16:58.245Z,14.8959
2024-05-09T11:18:00.583Z,14.9554
2024-05-09T11:19:02.900Z,15.0800
2024-05-09T11:20:13.298Z,15.1394
2024-05-09T11:21:05.697Z,15.1103
2024-05-09T11:22:07.925Z,15.3792
2024-05-09T11:23:10.118Z,15.7227
2024-05-09T11:24:12.194Z,16.0455
2024-05-09T11:25:14.418Z,16.4659
2024-05-09T11:26:16.541Z,15.7493
2024-05-09T11:27:18.655Z,15.9788
2024-05-09T11:28:20.903Z,15.5712
2024-05-09T11:29:23.018Z,15.5183
2024-05-09T11:30:30.115Z,15.6878
2024-05-09T11:31:25.972Z,15.5933
2024-05-09T11:32:28.327Z,15.4496
2024-05-09T11:33:30.634Z,15.2190
2024-05-09T11:34:32.901Z,15.6122
2024-05-09T11:35:35.058Z,15.2587
2024-05-09T11:36:37.207Z,15.2945
2024-05-09T11:37:39.346Z,15.4659
2024-05-09T11:38:41.473Z,15.4135
2024-05-09T11:39:43.612Z,15.1938
2024-05-09T11:40:45.728Z,16.0158
2024-05-09T11:41:47.861Z,15.6493
2024-05-09T11:42:52.498Z,15.4804
2024-05-09T11:43:50.180Z,16.2987
2024-05-09T11:44:52.287Z,15.7633
2024-05-09T11:45:54.431Z,16.1888
2024-05-09T11:46:56.508Z,16.4603
2024-05-09T11:47:58.846Z,16.4286
2024-05-09T11:49:01.110Z,16.2544
2024-05-09T11:50:04.365Z,15.6760
2024-05-09T11:51:04.765Z,15.3235
2024-05-09T11:52:06.909Z,15.8517
2024-05-09T11:53:09.049Z,16.3234
2024-05-09T11:54:11.126Z,15.7155
2024-05-09T11:55:13.320Z,15.7455
2024-05-09T11:56:15.432Z,15.9528
2024-05-09T11:57:17.522Z,15.6125
2024-05-09T11:58:19.854Z,15.3770
2024-05-09T11:59:22.118Z,15.6994
2024-05-09T12:00:33.754Z,15.4771
2024-05-09T12:01:27.510Z,15.1482
2024-05-09T12:02:25.079Z,15.8958
2024-05-09T12:03:27.352Z,15.7376
2024-05-09T12:04:29.581Z,15.9149
2024-05-09T12:05:32.035Z,15.3408
2024-05-09T12:06:31.899Z,15.6572
2024-05-09T12:07:34.037Z,15.6195
2024-05-09T12:08:36.152Z,16.0573
2024-05-09T12:09:38.401Z,15.6846
2024-05-09T12:10:40.769Z,16.0071
2024-05-09T12:11:40.525Z,17.2038
2024-05-09T12:12:42.642Z,16.7230
2024-05-09T12:13:44.791Z,16.2621
2024-05-09T12:14:46.901Z,16.1664
2024-05-09T12:15:49.044Z,15.6365
2024-05-09T12:16:51.275Z,16.0197
2024-05-09T12:17:53.573Z,15.7570
2024-05-09T12:18:55.984Z,16.5483
2024-05-09T12:19:58.182Z,15.9254
2024-05-09T12:21:00.305Z,16.4108
2024-05-09T12:22:02.466Z,16.6132
2024-05-09T12:23:04.613Z,16.6117
2024-05-09T12:24:06.687Z,16.8816
2024-05-09T12:25:08.898Z,16.7276
2024-05-09T12:26:11.075Z,17.0835
2024-05-09T12:27:11.140Z,16.8004
2024-05-09T12:28:13.314Z,16.2834
2024-05-09T12:29:15.451Z,16.4427
2024-05-09T12:30:29.034Z,16.4241
2024-05-09T12:31:18.214Z,16.8355
2024-05-09T12:32:20.432Z,16.6161
2024-05-09T12:33:22.674Z,16.4206
2024-05-09T12:34:24.782Z,16.2774
2024-05-09T12:35:26.895Z,16.1803
2024-05-09T12:36:27.557Z,16.5589
2024-05-09T12:37:29.719Z,16.9877
2024-05-09T12:38:31.838Z,17.9057
2024-05-09T12:39:33.988Z,17.5217
2024-05-09T12:40:38.319Z,16.6735
2024-05-09T12:41:36.525Z,16.6003
2024-05-09T12:42:38.785Z,16.4938
2024-05-09T12:43:40.975Z,16.9225
2024-05-09T12:44:43.080Z,16.5472
2024-05-09T12:45:45.337Z,17.1524
2024-05-09T12:46:47.442Z,17.0796
2024-05-09T12:47:49.780Z,16.9478